Time;durP1;ratioP1;P1;durP2;ratioP2;P2;SDS_P1;SDS_P2;PMS_P1;PMS_P2;Temp;Humidity;BMP_temperature;BMP_pressure;BME280_temperature;BME280_humidity;BME280_pressure;Samples;Min_cycle;Max_cycle;Signal;HPM_P1;HPM_P2
2023/04/29 00:02:33;;;;;;;15.25;9.02;;;15.20;87.10;;;;;;5094047;28;20498;-77
2023/04/29 00:05:37;;;;;;;16.00;8.75;;;16.50;88.10;;;;;;5093744;28;20043;-77
2023/04/29 00:08:42;;;;;;;18.05;9.23;;;18.60;88.60;;;;;;5092965;28;20067;-77
2023/04/29 00:11:46;;;;;;;20.77;9.23;;;15.60;86.60;;;;;;5093776;28;20047;-78
2023/04/29 00:14:50;;;;;;;22.77;9.35;;;16.50;87.10;;;;;;5093558;28;20051;-78
2023/04/29 00:17:54;;;;;;;15.80;8.05;;;15.00;85.20;;;;;;5093433;28;20047;-78
2023/04/29 00:20:59;;;;;;;15.90;8.27;;;;;;;;;;5092789;28;20404;-79
2023/04/29 00:24:03;;;;;;;13.02;8.25;;;15.40;84.90;;;;;;5093437;28;20387;-77
2023/04/29 00:27:07;;;;;;;21.35;10.48;;;15.70;85.30;;;;;;5093162;28;20059;-77
2023/04/29 00:30:11;;;;;;;21.13;10.90;;;;;;;;;;5081020;28;20047;-78
2023/04/29 00:33:16;;;;;;;19.45;10.25;;;15.50;85.60;;;;;;5093183;28;20055;-77
2023/04/29 00:36:20;;;;;;;20.17;10.20;;;;;;;;;;5080849;28;20035;-77
2023/04/29 00:39:24;;;;;;;18.38;9.98;;;14.00;85.70;;;;;;5092214;28;20047;-78
2023/04/29 00:42:30;;;;;;;19.05;11.00;;;14.80;86.70;;;;;;5093220;28;20039;-77
2023/04/29 00:45:34;;;;;;;16.67;9.20;;;11.90;86.30;;;;;;5093318;28;20396;-77
2023/04/29 00:48:38;;;;;;;20.73;8.85;;;14.70;87.70;;;;;;5092490;28;20043;-77
2023/04/29 00:51:44;;;;;;;18.25;9.05;;;15.00;87.30;;;;;;5092330;28;20046;-78
2023/04/29 00:54:48;;;;;;;15.00;8.63;;;15.20;87.20;;;;;;5093006;28;20042;-78
2023/04/29 00:57:52;;;;;;;14.05;8.40;;;;;;;;;;5092016;28;20043;-78
2023/04/29 01:00:56;;;;;;;17.95;8.52;;;15.40;87.40;;;;;;5091881;28;20556;-78
2023/04/29 01:04:00;;;;;;;23.50;8.93;;;18.50;89.30;;;;;;5092990;28;20047;-78
2023/04/29 01:07:14;;;;;;;18.92;8.68;;;13.10;87.00;;;;;;5092831;28;20043;-78
2023/04/29 01:10:26;;;;;;;18.27;9.23;;;14.70;87.90;;;;;;5080284;28;20051;-78
2023/04/29 01:13:48;;;;;;;18.27;8.95;;;16.00;88.70;;;;;;5080214;28;20043;-78
2023/04/29 01:16:59;;;;;;;16.83;9.82;;;14.60;88.10;;;;;;5091616;28;20039;-78
2023/04/29 01:20:05;;;;;;;16.45;9.27;;;13.70;87.90;;;;;;5091878;28;20055;-78
2023/04/29 01:23:09;;;;;;;17.08;9.93;;;;;;;;;;5091721;28;20047;-78
2023/04/29 01:26:15;;;;;;;16.33;9.40;;;13.90;87.40;;;;;;5091282;28;20055;-78
2023/04/29 01:29:40;;;;;;;17.95;10.05;;;14.70;88.60;;;;;;5092418;28;20043;-78
2023/04/29 01:32:53;;;;;;;15.10;9.80;;;18.00;90.40;;;;;;5080154;28;20391;-78
2023/04/29 01:36:21;;;;;;;16.63;10.35;;;14.60;89.00;;;;;;5092338;28;20038;-78
2023/04/29 01:39:45;;;;;;;17.70;9.93;;;13.80;89.10;;;;;;5091136;28;20063;-78
2023/04/29 01:43:07;;;;;;;21.75;9.57;;;14.50;88.70;;;;;;5091116;28;20510;-77
2023/04/29 01:46:15;;;;;;;18.65;9.43;;;14.20;87.70;;;;;;5079437;28;20035;-77
2023/04/29 01:49:20;;;;;;;16.67;8.43;;;15.80;88.40;;;;;;5090909;28;20039;-78
2023/04/29 01:52:25;;;;;;;16.98;8.90;;;;;;;;;;5091111;28;20499;-78
2023/04/29 01:55:32;;;;;;;16.75;8.70;;;14.80;87.40;;;;;;5091247;28;20036;-78
2023/04/29 01:58:58;;;;;;;12.68;8.27;;;;;;;;;;5090867;28;20506;-78
2023/04/29 02:02:40;;;;;;;15.25;8.75;;;15.00;87.40;;;;;;5089165;28;20153;-78
2023/04/29 02:05:59;;;;;;;27.60;10.10;;;14.80;87.50;;;;;;5089112;28;20131;-77
2023/04/29 02:09:03;;;;;;;16.48;9.48;;;15.00;88.20;;;;;;5090658;28;20403;-78
2023/04/29 02:12:10;;;;;;;19.85;10.13;;;17.70;89.70;;;;;;5091175;28;20039;-78
2023/04/29 02:15:13;;;;;;;17.08;9.75;;;16.20;89.80;;;;;;5090716;28;20046;-77
2023/04/29 02:18:17;;;;;;;20.85;10.93;;;14.80;88.80;;;;;;5090482;28;20047;-77
2023/04/29 02:21:21;;;;;;;16.23;9.48;;;13.20;88.30;;;;;;5090577;28;20055;-78
2023/04/29 02:24:25;;;;;;;20.33;9.30;;;14.70;88.30;;;;;;5090431;28;20043;-78
2023/04/29 02:27:30;;;;;;;17.60;10.43;;;14.60;88.80;;;;;;5090745;28;20055;-78
2023/04/29 02:30:33;;;;;;;21.65;10.63;;;14.70;88.80;;;;;;5091470;28;20047;-77
2023/04/29 02:33:37;;;;;;;17.35;9.65;;;14.60;88.90;;;;;;5090634;28;20039;-77
2023/04/29 02:36:41;;;;;;;22.98;10.57;;;14.50;89.50;;;;;;5091401;28;20059;-78
2023/04/29 02:39:45;;;;;;;16.75;11.50;;;15.40;90.00;;;;;;5091118;28;20051;-77
2023/04/29 02:42:50;;;;;;;18.83;11.75;;;14.60;90.00;;;;;;5090555;28;20042;-77
2023/04/29 02:45:54;;;;;;;23.27;12.45;;;;;;;;;;5091824;28;20157;-78
2023/04/29 02:48:59;;;;;;;19.23;11.48;;;14.30;90.60;;;;;;5090441;28;20047;-78
2023/04/29 02:52:03;;;;;;;22.35;11.57;;;14.30;90.60;;;;;;5090728;28;20039;-78
2023/04/29 02:55:08;;;;;;;20.92;11.70;;;14.30;90.40;;;;;;5090683;28;20035;-78
2023/04/29 02:58:12;;;;;;;21.20;12.80;;;14.20;90.50;;;;;;5091020;28;20047;-78
2023/04/29 03:01:16;;;;;;;16.98;11.63;;;;;;;;;;5090237;28;20059;-78
2023/04/29 03:04:21;;;;;;;24.50;12.32;;;14.20;90.70;;;;;;5095344;28;20035;-78
2023/04/29 03:07:26;;;;;;;23.02;11.85;;;14.20;90.70;;;;;;5094218;28;20039;-78
2023/04/29 03:10:31;;;;;;;20.25;13.02;;;14.10;90.80;;;;;;5094472;28;20514;-78
2023/04/29 03:13:35;;;;;;;23.65;12.88;;;14.00;91.00;;;;;;5094308;28;20051;-78
2023/04/29 03:16:39;;;;;;;20.67;13.80;;;14.30;91.10;;;;;;5094365;28;20063;-78
2023/04/29 03:19:43;;;;;;;22.92;13.68;;;15.20;91.10;;;;;;5094823;28;20055;-78
2023/04/29 03:22:47;;;;;;;17.70;13.40;;;14.10;91.30;;;;;;5082361;28;20043;-78
2023/04/29 03:25:51;;;;;;;25.30;13.93;;;14.00;91.30;;;;;;5094767;28;20055;-78
2023/04/29 03:28:57;;;;;;;25.27;14.80;;;14.00;91.10;;;;;;5082349;28;20050;-77
2023/04/29 03:32:01;;;;;;;24.83;13.40;;;14.20;91.10;;;;;;5093962;28;20391;-78
2023/04/29 03:35:06;;;;;;;18.80;13.15;;;13.90;90.80;;;;;;5082144;28;20055;-77
2023/04/29 03:38:16;;;;;;;18.38;12.88;;;14.20;90.90;;;;;;5082875;28;20055;-77
2023/04/29 03:41:23;;;;;;;20.58;13.40;;;14.00;90.70;;;;;;5093921;28;20379;-77
2023/04/29 03:44:28;;;;;;;19.33;12.15;;;14.10;90.60;;;;;;5093444;28;20047;-78
2023/04/29 03:47:32;;;;;;;17.48;11.95;;;14.10;90.40;;;;;;5082021;28;20157;-78
2023/04/29 03:50:37;;;;;;;20.13;11.35;;;14.00;90.40;;;;;;5093595;28;20403;-78
2023/04/29 03:53:41;;;;;;;18.88;10.23;;;13.90;90.30;;;;;;5093372;28;20039;-79
2023/04/29 03:56:45;;;;;;;17.70;8.80;;;13.90;89.30;;;;;;5093638;28;20047;-78
2023/04/29 03:59:50;;;;;;;18.70;8.80;;;13.40;90.20;;;;;;5081454;28;20399;-78
2023/04/29 04:02:53;;;;;;;17.30;8.82;;;13.10;90.90;;;;;;5081617;28;20047;-77
2023/04/29 04:05:58;;;;;;;21.55;8.15;;;;;;;;;;5093498;28;20043;-78
2023/04/29 04:09:01;;;;;;;13.57;8.07;;;13.30;91.30;;;;;;5081244;28;20043;-78
2023/04/29 04:12:07;;;;;;;18.08;8.70;;;13.40;90.80;;;;;;5093835;28;20039;-78
2023/04/29 04:15:12;;;;;;;13.75;8.82;;;13.60;90.60;;;;;;5091920;28;20043;-77
2023/04/29 04:18:16;;;;;;;17.95;8.93;;;13.70;90.60;;;;;;5092686;28;20047;-77
2023/04/29 04:21:20;;;;;;;16.75;9.40;;;13.90;90.40;;;;;;5093054;28;20054;-78
2023/04/29 04:24:32;;;;;;;19.80;9.88;;;13.70;90.40;;;;;;5093057;28;20490;-77
2023/04/29 04:27:36;;;;;;;16.08;9.32;;;13.70;91.00;;;;;;5081358;28;20161;-77
2023/04/29 04:30:45;;;;;;;14.90;10.82;;;13.60;90.80;;;;;;5093051;28;20046;-78
2023/04/29 04:33:50;;;;;;;17.27;10.20;;;13.60;90.70;;;;;;5092875;28;20047;-78
2023/04/29 04:36:54;;;;;;;21.38;11.10;;;13.70;90.60;;;;;;5080773;28;20047;-78
2023/04/29 04:40:00;;;;;;;26.10;11.32;;;;;;;;;;5092548;28;20051;-78
2023/04/29 04:43:05;;;;;;;22.25;11.80;;;14.00;90.50;;;;;;5081204;28;20419;-78
2023/04/29 04:46:13;;;;;;;23.33;10.73;;;14.00;90.50;;;;;;5092377;28;20047;-78
2023/04/29 04:49:26;;;;;;;19.05;11.48;;;14.20;90.50;;;;;;5092608;28;20055;-78
2023/04/29 04:52:30;;;;;;;18.95;11.65;;;14.50;90.50;;;;;;5092284;28;20051;-78
2023/04/29 04:55:49;;;;;;;17.92;11.05;;;15.40;89.70;;;;;;5092426;28;20043;-78
2023/04/29 04:58:53;;;;;;;21.00;10.10;;;16.60;84.70;;;;;;5080324;28;20062;-76
2023/04/29 05:01:57;;;;;;;17.88;10.93;;;17.50;81.90;;;;;;5092920;28;20047;-79
2023/04/29 05:05:01;;;;;;;21.65;11.68;;;18.60;80.00;;;;;;5092307;28;20047;-79
2023/04/29 05:08:09;;;;;;;19.15;12.02;;;19.80;76.50;;;;;;5091935;28;20399;-78
2023/04/29 05:11:19;;;;;;;19.70;13.40;;;20.30;74.60;;;;;;5092061;28;20039;-78
2023/04/29 05:14:36;;;;;;;21.15;13.57;;;21.00;73.20;;;;;;5091661;28;20059;-77
2023/04/29 05:17:40;;;;;;;29.27;14.85;;;18.20;70.70;;;;;;5092504;28;20047;-78
2023/04/29 05:20:44;;;;;;;21.23;15.23;;;21.30;72.70;;;;;;5091951;28;20047;-78
2023/04/29 05:23:48;;;;;;;26.85;14.52;;;21.30;73.10;;;;;;5091661;28;20071;-77
2023/04/29 05:26:53;;;;;;;28.88;14.25;;;21.50;72.70;;;;;;5091975;28;20051;-77
2023/04/29 05:29:58;;;;;;;25.73;15.45;;;21.30;73.00;;;;;;5091710;28;20047;-78
2023/04/29 05:33:02;;;;;;;19.77;13.73;;;20.40;74.70;;;;;;5091771;28;20047;-79
2023/04/29 05:36:07;;;;;;;24.15;14.40;;;19.40;76.30;;;;;;5091313;28;20047;-74
2023/04/29 05:39:11;;;;;;;22.33;13.23;;;19.10;77.90;;;;;;5091417;28;20518;-74
2023/04/29 05:42:14;;;;;;;19.10;12.10;;;19.00;78.40;;;;;;5091222;28;20491;-74
2023/04/29 05:45:23;;;;;;;20.75;12.05;;;18.80;78.90;;;;;;5091259;28;20051;-75
2023/04/29 05:48:28;;;;;;;23.73;12.05;;;18.60;79.60;;;;;;5091302;28;20043;-74
2023/04/29 05:51:32;;;;;;;17.55;10.93;;;18.60;80.40;;;;;;5091383;28;20051;-75
2023/04/29 05:54:36;;;;;;;23.80;10.75;;;18.60;80.60;;;;;;5091034;28;20043;-75
2023/04/29 05:57:40;;;;;;;17.00;9.02;;;18.70;80.60;;;;;;5079130;28;20054;-75
2023/04/29 06:00:44;;;;;;;29.10;8.98;;;18.80;79.90;;;;;;5091295;28;20079;-75
2023/04/29 06:03:55;;;;;;;15.15;8.18;;;18.90;80.00;;;;;;5091066;28;20383;-75
2023/04/29 06:07:22;;;;;;;18.50;7.72;;;19.00;80.10;;;;;;5091144;28;20043;-75
2023/04/29 06:10:38;;;;;;;13.05;7.20;;;19.20;80.60;;;;;;5091045;28;20391;-75
2023/04/29 06:13:42;;;;;;;14.10;7.03;;;19.30;80.90;;;;;;5090924;28;20047;-76
2023/04/29 06:16:46;;;;;;;33.08;8.63;;;19.40;81.10;;;;;;5090802;28;20050;-77
2023/04/29 06:19:50;;;;;;;24.98;7.40;;;19.70;80.80;;;;;;5090136;28;20055;-73
2023/04/29 06:22:54;;;;;;;15.73;7.32;;;19.70;80.90;;;;;;5090207;28;20039;-75
2023/04/29 06:25:58;;;;;;;12.38;7.10;;;19.90;81.30;;;;;;5090204;28;20395;-73
2023/04/29 06:29:02;;;;;;;11.25;7.15;;;20.10;81.30;;;;;;5090167;28;20047;-73
2023/04/29 06:32:07;;;;;;;14.20;7.20;;;20.30;81.30;;;;;;5090244;28;20047;-73
2023/04/29 06:35:11;;;;;;;22.35;8.02;;;20.60;81.60;;;;;;5091316;28;20051;-74
2023/04/29 06:38:25;;;;;;;13.20;6.93;;;21.00;81.00;;;;;;5090506;28;20205;-74
2023/04/29 06:41:48;;;;;;;10.77;6.13;;;21.20;80.50;;;;;;5091040;28;20043;-74
2023/04/29 06:45:10;;;;;;;12.77;6.18;;;21.30;81.30;;;;;;5090453;28;20186;-73
2023/04/29 06:48:17;;;;;;;17.80;7.43;;;21.70;80.70;;;;;;5090311;28;20399;-74
2023/04/29 06:51:23;;;;;;;14.40;5.28;;;22.00;80.40;;;;;;5089982;28;20043;-73
2023/04/29 06:54:28;;;;;;;10.25;5.03;;;21.90;80.60;;;;;;5090157;28;20043;-73
2023/04/29 06:57:32;;;;;;;13.65;4.95;;;22.10;80.40;;;;;;5088939;28;20043;-72
2023/04/29 07:00:36;;;;;;;8.07;4.50;;;22.10;80.70;;;;;;5087888;28;20059;-70
2023/04/29 07:03:40;;;;;;;9.27;4.68;;;21.90;80.50;;;;;;5089396;28;20035;-73
2023/04/29 07:06:45;;;;;;;15.35;4.53;;;21.50;81.80;;;;;;5089827;28;20601;-72
2023/04/29 07:09:52;;;;;;;15.32;4.10;;;21.60;82.40;;;;;;5089716;28;20506;-72
2023/04/29 07:12:59;;;;;;;9.65;3.92;;;21.90;82.60;;;;;;5090168;28;20055;-70
2023/04/29 07:16:03;;;;;;;13.05;4.43;;;22.30;82.40;;;;;;5091048;28;20039;-73
2023/04/29 07:19:07;;;;;;;14.23;3.83;;;22.80;82.10;;;;;;5090589;28;20054;-71
2023/04/29 07:22:11;;;;;;;10.40;4.20;;;23.30;80.20;;;;;;5090548;28;20055;-71
2023/04/29 07:25:15;;;;;;;8.07;3.78;;;23.20;78.80;;;;;;5090372;28;20062;-72
2023/04/29 07:28:19;;;;;;;12.02;4.60;;;23.00;79.40;;;;;;5089553;28;20466;-70
2023/04/29 07:31:24;;;;;;;10.40;4.82;;;23.40;80.50;;;;;;5089793;28;20364;-70
2023/04/29 07:34:27;;;;;;;9.52;4.50;;;23.50;78.80;;;;;;5077942;28;20051;-69
2023/04/29 07:37:31;;;;;;;9.73;4.05;;;23.40;77.60;;;;;;5089101;28;20047;-72
2023/04/29 07:40:35;;;;;;;11.68;4.60;;;23.50;77.30;;;;;;5090246;28;20051;-70
2023/04/29 07:43:40;;;;;;;12.93;5.95;;;23.70;78.50;;;;;;5077686;28;20391;-75
2023/04/29 07:46:45;;;;;;;8.75;4.82;;;24.00;77.40;;;;;;5077938;28;20078;-75
2023/04/29 07:49:51;;;;;;;10.90;5.45;;;24.00;77.30;;;;;;5093785;28;20110;-74
2023/04/29 07:52:56;;;;;;;10.73;5.25;;;24.10;77.40;;;;;;5094046;28;20055;-71
2023/04/29 07:56:06;;;;;;;13.75;5.50;;;24.20;75.90;;;;;;5093112;28;20042;-70
2023/04/29 07:59:09;;;;;;;16.63;6.28;;;24.30;76.90;;;;;;5093945;28;20126;-73
2023/04/29 08:02:15;;;;;;;11.70;6.28;;;24.30;75.60;;;;;;5092919;28;20390;-73
2023/04/29 08:05:20;;;;;;;11.57;5.38;;;24.10;76.50;;;;;;5080956;28;20510;-73
2023/04/29 08:08:24;;;;;;;12.90;5.40;;;24.20;76.20;;;;;;5092632;28;20382;-72
2023/04/29 08:11:29;;;;;;;9.60;4.65;;;24.30;76.70;;;;;;5093040;28;20123;-73
2023/04/29 08:14:33;;;;;;;13.65;4.60;;;24.30;76.40;;;;;;5092721;28;20047;-73
2023/04/29 08:17:37;;;;;;;10.38;4.43;;;24.00;76.90;;;;;;5092496;28;20047;-73
2023/04/29 08:20:41;;;;;;;8.73;3.85;;;23.90;77.40;;;;;;5093464;28;20075;-72
2023/04/29 08:23:45;;;;;;;11.18;4.65;;;24.00;77.60;;;;;;5093776;28;20043;-72
2023/04/29 08:26:49;;;;;;;7.22;4.20;;;24.20;76.50;;;;;;5093222;28;20403;-73
2023/04/29 08:29:54;;;;;;;9.18;3.58;;;24.30;76.10;;;;;;5093487;28;20059;-73
2023/04/29 08:32:59;;;;;;;7.03;2.95;;;24.40;76.10;;;;;;5094661;28;20051;-74
2023/04/29 08:36:03;;;;;;;7.00;2.80;;;24.40;75.40;;;;;;5094256;28;20039;-75
2023/04/29 08:39:07;;;;;;;8.95;2.85;;;24.30;76.10;;;;;;5093960;28;20062;-75
2023/04/29 08:42:13;;;;;;;10.77;3.17;;;24.30;76.30;;;;;;5095585;28;20039;-73
2023/04/29 08:45:19;;;;;;;9.85;3.38;;;24.10;76.60;;;;;;5094575;28;20051;-71
2023/04/29 08:48:25;;;;;;;10.27;2.45;;;24.10;76.20;;;;;;5093981;28;20039;-74
2023/04/29 08:51:31;;;;;;;5.15;2.25;;;24.20;75.50;;;;;;5093985;28;20063;-74
2023/04/29 08:54:35;;;;;;;11.43;3.45;;;24.30;74.70;;;;;;5097864;28;20055;-72
2023/04/29 08:57:41;;;;;;;7.13;2.65;;;24.30;75.00;;;;;;5095113;28;20514;-73
2023/04/29 09:00:46;;;;;;;6.90;2.38;;;24.40;74.90;;;;;;5093353;28;20067;-73
2023/04/29 09:04:01;;;;;;;12.57;2.90;;;24.50;74.50;;;;;;5094522;28;20047;-72
2023/04/29 09:07:06;;;;;;;9.18;4.57;;;24.50;73.50;;;;;;5093547;28;20059;-72
2023/04/29 09:10:10;;;;;;;5.00;2.20;;;24.50;73.60;;;;;;5094578;28;20035;-73
2023/04/29 09:13:25;;;;;;;6.85;1.95;;;24.60;72.80;;;;;;5093378;28;20050;-73
2023/04/29 09:16:29;;;;;;;12.30;2.75;;;24.60;73.80;;;;;;5092841;28;20399;-73
2023/04/29 09:19:35;;;;;;;7.00;2.33;;;24.30;72.50;;;;;;5094562;28;20052;-73
2023/04/29 09:22:47;;;;;;;4.35;1.92;;;24.20;73.80;;;;;;5094062;28;20043;-73
2023/04/29 09:25:56;;;;;;;5.82;2.33;;;24.30;74.00;;;;;;5092956;28;20063;-73
2023/04/29 09:29:08;;;;;;;6.95;2.28;;;24.30;73.10;;;;;;5093617;28;20047;-73
2023/04/29 09:32:21;;;;;;;8.15;2.58;;;24.30;73.50;;;;;;5093802;28;20031;-74
2023/04/29 09:35:27;;;;;;;8.20;2.42;;;24.50;72.80;;;;;;5093578;28;20040;-72
2023/04/29 09:38:31;;;;;;;8.38;2.90;;;24.50;70.80;;;;;;5093271;28;20043;-73
2023/04/29 09:41:35;;;;;;;6.50;2.67;;;24.30;69.70;;;;;;5092474;28;20055;-77
2023/04/29 09:44:41;;;;;;;3.25;1.83;;;24.50;70.50;;;;;;5092332;28;20035;-74
2023/04/29 09:47:45;;;;;;;5.63;1.90;;;24.70;69.20;;;;;;5093418;28;20119;-74
2023/04/29 09:51:00;;;;;;;6.85;2.05;;;24.70;68.90;;;;;;5092141;28;20039;-73
2023/04/29 09:54:20;;;;;;;6.00;1.75;;;24.90;69.00;;;;;;5092536;28;20039;-74
2023/04/29 09:57:40;;;;;;;2.67;1.60;;;25.00;66.90;;;;;;5092214;28;20043;-74
2023/04/29 10:00:44;;;;;;;6.38;1.85;;;25.10;66.40;;;;;;5092625;28;20076;-74
2023/04/29 10:03:52;;;;;;;3.90;1.77;;;25.10;64.40;;;;;;5092777;28;20047;-73
2023/04/29 10:06:56;;;;;;;5.55;1.95;;;25.30;64.00;;;;;;5080239;28;20118;-73
2023/04/29 10:10:04;;;;;;;4.70;1.70;;;25.30;64.40;;;;;;5091759;28;20043;-73
2023/04/29 10:13:08;;;;;;;6.70;1.63;;;25.50;64.20;;;;;;5092140;28;20174;-73
2023/04/29 10:16:28;;;;;;;8.48;2.30;;;25.60;63.10;;;;;;5092761;28;20639;-73
2023/04/29 10:19:59;;;;;;;3.38;1.77;;;25.70;60.70;;;;;;5092492;28;20047;-74
2023/04/29 10:23:03;;;;;;;;;;;25.70;59.30;;;;;;5095670;28;20035;-73
2023/04/29 10:26:11;;;;;;;4.30;1.17;;;25.70;59.40;;;;;;5090879;28;20291;-75
2023/04/29 10:29:17;;;;;;;2.47;1.40;;;25.80;56.70;;;;;;5091512;28;20047;-75
2023/04/29 10:32:21;;;;;;;3.42;1.45;;;25.70;55.30;;;;;;5092379;28;20106;-74
2023/04/29 10:35:25;;;;;;;4.35;1.73;;;25.70;57.40;;;;;;5091766;28;20134;-74
2023/04/29 10:38:40;;;;;;;7.03;2.20;;;25.70;57.60;;;;;;5091809;28;20051;-74
2023/04/29 10:41:46;;;;;;;7.50;1.50;;;25.70;58.70;;;;;;5092422;28;20055;-74
2023/04/29 10:45:17;;;;;;;3.53;1.80;;;25.60;60.30;;;;;;5092301;28;20047;-72
2023/04/29 10:48:23;;;;;;;6.47;2.50;;;25.60;62.30;;;;;;5091682;28;20063;-73
2023/04/29 10:51:42;;;;;;;5.45;1.83;;;25.70;63.80;;;;;;5091777;28;20051;-73
2023/04/29 10:55:02;;;;;;;7.20;2.38;;;25.50;63.80;;;;;;5093199;28;20047;-72
2023/04/29 10:58:40;;;;;;;7.47;2.42;;;25.40;64.80;;;;;;5090373;28;20035;-74
2023/04/29 11:01:46;;;;;;;5.85;2.92;;;25.40;64.80;;;;;;5092355;28;20051;-74
2023/04/29 11:05:07;;;;;;;8.38;3.22;;;25.40;63.80;;;;;;5091745;28;20648;-74
2023/04/29 11:08:15;;;;;;;6.07;2.33;;;25.40;65.60;;;;;;5091228;28;20047;-73
2023/04/29 11:11:19;;;;;;;5.07;2.15;;;25.40;64.60;;;;;;5091252;28;20039;-78
2023/04/29 11:14:25;;;;;;;7.30;2.50;;;25.40;65.20;;;;;;5091512;28;20046;-73
2023/04/29 11:17:36;;;;;;;7.95;2.80;;;25.40;66.00;;;;;;5090159;28;20047;-74
2023/04/29 11:21:11;;;;;;;8.32;3.03;;;25.40;67.10;;;;;;5091843;28;20059;-73
2023/04/29 11:24:16;;;;;;;7.22;2.47;;;25.50;67.40;;;;;;5081165;28;20039;-73
2023/04/29 11:27:24;;;;;;;7.93;2.38;;;25.50;68.10;;;;;;5095673;28;20051;-74
2023/04/29 11:30:29;;;;;;;6.43;3.03;;;25.50;68.10;;;;;;5095009;28;20047;-75
2023/04/29 11:33:33;;;;;;;9.23;2.90;;;25.40;68.70;;;;;;5094669;28;20051;-75
2023/04/29 11:36:37;;;;;;;7.32;2.80;;;25.20;67.90;;;;;;5095869;28;20234;-74
2023/04/29 11:39:41;;;;;;;11.02;3.78;;;25.10;69.30;;;;;;5093800;28;20399;-74
2023/04/29 11:42:47;;;;;;;8.75;3.45;;;25.10;69.20;;;;;;5094286;28;20047;-73
2023/04/29 11:45:52;;;;;;;6.00;2.97;;;25.00;69.60;;;;;;5095261;28;20047;-74
2023/04/29 11:48:58;;;;;;;7.90;3.15;;;25.00;70.10;;;;;;5095382;28;20051;-75
2023/04/29 11:52:02;;;;;;;10.48;3.40;;;25.00;70.00;;;;;;5095143;28;20395;-74
2023/04/29 11:55:10;;;;;;;10.07;3.10;;;24.90;71.10;;;;;;5095422;28;20051;-74
2023/04/29 11:58:15;;;;;;;9.00;3.80;;;24.90;71.40;;;;;;5096009;28;20047;-74
2023/04/29 12:01:20;;;;;;;9.43;3.25;;;24.90;71.10;;;;;;5095971;28;20066;-73
2023/04/29 12:04:24;;;;;;;11.38;3.47;;;24.80;69.60;;;;;;5095418;28;20051;-76
2023/04/29 12:07:29;;;;;;;10.80;2.97;;;24.80;70.20;;;;;;5096669;28;20063;-74
2023/04/29 12:10:35;;;;;;;6.65;2.83;;;24.80;70.70;;;;;;5095687;28;20678;-73
2023/04/29 12:13:40;;;;;;;9.70;3.38;;;24.80;70.40;;;;;;5094475;28;20047;-74
2023/04/29 12:16:45;;;;;;;9.93;2.95;;;24.60;70.80;;;;;;5094321;28;20043;-73
2023/04/29 12:19:50;;;;;;;6.88;2.40;;;24.60;70.50;;;;;;5096052;28;20469;-73
2023/04/29 12:22:54;;;;;;;4.28;2.25;;;24.60;71.10;;;;;;5082267;28;20046;-72
2023/04/29 12:25:59;;;;;;;9.82;2.50;;;24.70;70.10;;;;;;5094007;28;20063;-76
2023/04/29 12:29:04;;;;;;;11.55;3.63;;;24.70;68.20;;;;;;5094572;28;20043;-75
2023/04/29 12:32:15;;;;;;;8.35;2.53;;;24.60;67.30;;;;;;5094403;28;20047;-75
2023/04/29 12:35:20;;;;;;;6.32;2.47;;;24.50;68.50;;;;;;5092896;28;20043;-73
2023/04/29 12:38:26;;;;;;;10.90;2.05;;;24.40;69.30;;;;;;5094414;28;20047;-74
2023/04/29 12:41:41;;;;;;;8.93;2.40;;;24.30;70.00;;;;;;5092930;28;20051;-74
2023/04/29 12:44:46;;;;;;;12.30;2.33;;;24.20;70.60;;;;;;5094131;28;20051;-74
2023/04/29 12:47:51;;;;;;;6.47;2.17;;;24.20;70.20;;;;;;5093660;28;20047;-75
2023/04/29 12:50:57;;;;;;;5.65;1.85;;;24.10;68.60;;;;;;5093773;28;20039;-74
2023/04/29 12:54:02;;;;;;;45.40;6.15;;;24.00;69.60;;;;;;5093170;28;20051;-74
2023/04/29 12:57:07;;;;;;;11.27;2.13;;;24.00;70.80;;;;;;5092555;28;20427;-74
2023/04/29 13:00:13;;;;;;;6.72;2.08;;;23.90;71.50;;;;;;5092701;28;20051;-74
2023/04/29 13:03:17;;;;;;;12.27;2.63;;;23.90;71.80;;;;;;5093678;28;20055;-74
2023/04/29 13:06:22;;;;;;;14.75;3.50;;;23.90;72.70;;;;;;5093354;28;20058;-73
2023/04/29 13:09:26;;;;;;;11.13;3.15;;;23.90;73.30;;;;;;5093584;28;20050;-74
2023/04/29 13:12:30;;;;;;;9.85;2.97;;;23.80;72.80;;;;;;5093824;28;20035;-75
2023/04/29 13:15:34;;;;;;;8.52;2.88;;;23.80;74.30;;;;;;5093182;28;20055;-74
2023/04/29 13:18:38;;;;;;;9.80;2.70;;;23.60;75.60;;;;;;5093571;28;20055;-74
2023/04/29 13:21:42;;;;;;;13.80;2.85;;;23.50;75.80;;;;;;5094110;28;20048;-75
2023/04/29 13:24:46;;;;;;;11.52;3.30;;;23.50;76.30;;;;;;5093045;28;20039;-78
2023/04/29 13:27:50;;;;;;;9.90;3.55;;;23.40;77.10;;;;;;5093435;28;20055;-74
2023/04/29 13:30:54;;;;;;;13.23;2.78;;;23.40;77.90;;;;;;5092349;28;20039;-74
2023/04/29 13:33:58;;;;;;;12.50;2.78;;;23.40;77.20;;;;;;5094132;28;20062;-72
2023/04/29 13:37:02;;;;;;;8.13;3.05;;;23.30;77.30;;;;;;5093570;28;20044;-72
2023/04/29 13:40:07;;;;;;;11.80;3.10;;;23.30;78.30;;;;;;5092614;28;20058;-74
2023/04/29 13:43:12;;;;;;;12.10;3.15;;;23.30;78.40;;;;;;5092226;28;20047;-75
2023/04/29 13:46:17;;;;;;;10.57;3.10;;;23.10;76.90;;;;;;5093593;28;20043;-74
2023/04/29 13:49:21;;;;;;;16.77;3.15;;;23.10;78.80;;;;;;5092267;28;20051;-74
2023/04/29 13:52:26;;;;;;;13.60;3.10;;;23.10;79.10;;;;;;5068687;28;20043;-75
2023/04/29 13:55:33;;;;;;;9.80;3.30;;;23.10;79.50;;;;;;5091800;28;20716;-75
2023/04/29 13:58:37;;;;;;;9.35;4.22;;;23.00;81.20;;;;;;5092539;28;20050;-74
2023/04/29 14:01:41;;;;;;;18.48;3.90;;;22.90;81.20;;;;;;5091209;28;20053;-74
2023/04/29 14:04:45;;;;;;;12.95;3.80;;;22.80;81.60;;;;;;5091330;28;20502;-74
2023/04/29 14:07:49;;;;;;;10.98;3.47;;;22.60;81.30;;;;;;5093189;28;20521;-74
2023/04/29 14:10:53;;;;;;;16.15;6.18;;;22.60;82.00;;;;;;5093169;28;20039;-73
2023/04/29 14:13:57;;;;;;;21.58;7.03;;;22.50;84.60;;;;;;5092337;28;20106;-75
2023/04/29 14:17:00;;;;;;;14.48;3.88;;;22.40;86.20;;;;;;5094131;28;20040;-74
2023/04/29 14:20:06;;;;;;;14.45;4.90;;;22.20;87.30;;;;;;5094435;28;20404;-73
2023/04/29 14:23:10;;;;;;;15.52;4.88;;;22.00;87.30;;;;;;5093347;28;20403;-74
2023/04/29 14:26:14;;;;;;;15.82;5.30;;;21.90;87.60;;;;;;5092110;28;20055;-75
2023/04/29 14:29:18;;;;;;;11.77;4.70;;;21.90;87.50;;;;;;5091928;28;20051;-74
2023/04/29 14:32:22;;;;;;;13.52;4.47;;;21.90;87.30;;;;;;5092037;28;20047;-75
2023/04/29 14:35:26;;;;;;;15.80;4.68;;;21.90;87.00;;;;;;5092293;28;20606;-76
2023/04/29 14:38:31;;;;;;;25.92;4.65;;;21.90;87.80;;;;;;5091786;28;20043;-74
2023/04/29 14:41:35;;;;;;;14.73;5.03;;;21.80;87.20;;;;;;5090406;28;20047;-74
2023/04/29 14:44:39;;;;;;;19.90;4.93;;;21.80;86.50;;;;;;5091889;28;20055;-74
2023/04/29 14:47:43;;;;;;;17.45;4.93;;;21.90;86.90;;;;;;5091409;28;20518;-75
2023/04/29 14:50:47;;;;;;;16.83;6.55;;;21.90;86.60;;;;;;5091577;28;20093;-75
2023/04/29 14:53:51;;;;;;;21.05;9.30;;;21.90;87.70;;;;;;5091805;28;20043;-75
2023/04/29 14:56:55;;;;;;;22.30;5.90;;;21.90;87.90;;;;;;5091628;28;20039;-74
2023/04/29 15:00:00;;;;;;;12.02;4.75;;;21.90;87.60;;;;;;5091332;28;20051;-74
2023/04/29 15:03:03;;;;;;;25.52;5.63;;;21.90;87.20;;;;;;5091526;28;20074;-74
2023/04/29 15:06:07;;;;;;;20.52;5.22;;;21.90;87.80;;;;;;5090245;28;20051;-73
2023/04/29 15:09:12;;;;;;;17.58;5.38;;;21.90;89.00;;;;;;5091233;28;20118;-74
2023/04/29 15:12:16;;;;;;;22.88;7.07;;;21.80;89.40;;;;;;5090199;28;20051;-74
2023/04/29 15:15:23;;;;;;;16.92;7.00;;;21.70;89.60;;;;;;5091793;28;20047;-73
2023/04/29 15:18:27;;;;;;;10.43;5.03;;;21.70;90.10;;;;;;5091425;28;20043;-73
2023/04/29 15:21:31;;;;;;;14.32;5.47;;;21.60;90.30;;;;;;5091385;28;20059;-73
2023/04/29 15:24:35;;;;;;;16.38;5.38;;;21.70;90.30;;;;;;5091592;28;20047;-75
2023/04/29 15:27:40;;;;;;;17.05;7.68;;;21.70;89.90;;;;;;5091287;28;20047;-75
2023/04/29 15:30:45;;;;;;;22.80;9.18;;;21.70;89.50;;;;;;5091157;28;20031;-75
2023/04/29 15:33:53;;;;;;;25.42;11.00;;;21.60;89.70;;;;;;5089054;28;20498;-74
2023/04/29 15:36:58;;;;;;;34.28;13.57;;;21.60;90.00;;;;;;5091218;28;20048;-74
2023/04/29 15:40:03;;;;;;;22.25;9.93;;;21.60;90.10;;;;;;5090035;28;20363;-75
2023/04/29 15:43:09;;;;;;;19.92;10.25;;;21.50;90.30;;;;;;5091969;28;20082;-74
2023/04/29 15:46:13;;;;;;;22.42;7.68;;;21.50;90.40;;;;;;5091622;28;20383;-73
2023/04/29 15:49:18;;;;;;;20.50;8.40;;;21.40;90.40;;;;;;5090883;28;20051;-73
2023/04/29 15:52:22;;;;;;;24.88;10.05;;;21.40;90.30;;;;;;5090999;28;20039;-74
2023/04/29 15:55:26;;;;;;;21.05;9.73;;;21.40;90.30;;;;;;5092275;28;20043;-74
2023/04/29 15:58:30;;;;;;;23.58;10.52;;;21.30;90.40;;;;;;5092377;28;20047;-75
2023/04/29 16:01:34;;;;;;;36.30;17.92;;;21.20;90.60;;;;;;5091754;28;20059;-75
2023/04/29 16:04:38;;;;;;;36.60;15.35;;;21.20;90.60;;;;;;5092100;28;20047;-75